KLAXMHTG

Guest
Details From KLAX - Los Angeles Intl
To MHTG - Tegucigalpa Toncontin Intl
Flight Number -
Tags Generated
Created
Modified
Stats Distance 2,074 nm / 3,841 km
Max Altitude 0 ft / 0 m
Waypoints 4
Social Downloads 4
Likes 0
Share VATSIM

Download

Looking for another format? Having issues loading an existing format? Contact us
Advertisement - Login to hide

Notes

Generated

Route

KLAX MISEX TNT MHTG

ID Type Via Altitude Latitude Longitude Leg Dist Tot Dist Heading (true) Name
O KLAX APT - 0 ft / 0 m 33.94914˚ -118.43120˚ - 0 nm - -
MISEX FIX - 0 ft / 0 m 27.98583˚ -106.75556˚ 699 nm 699 nm 118° / 124° -
TNT NDB - 0 ft / 0 m 14.06091˚ -87.22047˚ 1374 nm 2073 nm 123° / 131° TONCONTIN NDB
O MHTG APT - 0 ft / 0 m 14.05292˚ -87.22000˚ 0 nm 2073 nm 177° / 177° -

Altitude Profile

Advertisement - Login to hide

Weather


0- 5 10 15 20 25 30 35+ Temperature / ° C

Clouds and Precipitation
Forecast for 2017-12-12 06:00 UTC. Updated 2 hours ago

Ground ~20,000 ft ~40,000 ft Winds

KLAX

Details ICAO KLAX (LAX)
Name Los Angeles Intl
Region United States
Timezone America/Los_Angeles (UTC-8.0)
Stats Elevation 126 ft / 38 m (AMSL)
Location 33.943130° -118.408917°
Runways 4
Magnetic Variation 12.007° E

METAR

KLAX 120453Z 00000KT 10SM FEW200 15/05 A3019 RMK AO2 SLP221 T01500050

Decode

TAF

KLAX 120257Z 1203/1306 28008KT P6SM SCT250 FM120400 VRB03KT 6SM FU SCT250 FM120800 06004KT P6SM SCT250 FM122100 27007KT P6SM SKC

Decode

Departure Runways

ID Width Length Bearing (true) Bearing (mag) Surface Threshold Offset Overrun Length
06L 151 ft / 46 m 8,907 ft / 2,715 m 82.98° 70.97° Concrete 0 ft / 0 m 0 ft / 0 m
06R 151 ft / 46 m 10,266 ft / 3,129 m 82.95° 70.94° Concrete 331 ft / 101 m 0 ft / 0 m
07L 151 ft / 46 m 12,069 ft / 3,679 m 82.96° 70.95° Concrete 0 ft / 0 m 0 ft / 0 m
07R 200 ft / 61 m 11,081 ft / 3,377 m 82.96° 70.95° Concrete 0 ft / 0 m 397 ft / 121 m
24L 151 ft / 46 m 10,266 ft / 3,129 m 262.97° 250.96° Concrete 0 ft / 0 m 174 ft / 53 m
24R 151 ft / 46 m 8,907 ft / 2,715 m 263.00° 250.99° Concrete 0 ft / 0 m 305 ft / 93 m
25L 200 ft / 61 m 11,081 ft / 3,377 m 262.98° 250.97° Concrete 0 ft / 0 m 1,053 ft / 321 m
25R 151 ft / 46 m 12,069 ft / 3,679 m 262.98° 250.97° Concrete 958 ft / 292 m 154 ft / 47 m

MHTG

Details ICAO MHTG (TGU)
Name Tegucigalpa Toncontin Intl
Region Honduras
Timezone America/Tegucigalpa (UTC-6.0)
Stats Elevation 3,294 ft / 1,004 m (AMSL)
Location 14.060883° -87.217197°
Runways 1
Magnetic Variation 0.659° W

METAR

MHTG 120500Z 01010KT 9999 SCT024 SCT080 13/11 Q1024 A3024 NOSIG

Decode

TAF

Not found

Destination Runways

ID Width Length Bearing (true) Bearing (mag) Surface Threshold Offset Overrun Length
02 148 ft / 45 m 6,140 ft / 1,872 m 18.87° 19.53° Asphalt 670 ft / 204 m 100 ft / 30 m
20 148 ft / 45 m 6,140 ft / 1,872 m 198.87° 199.53° Asphalt 0 ft / 0 m 200 ft / 61 m

Popular Alternatives